createdAt,value
2023-03-07T00:01:30.184Z,96750.69
2023-03-07T00:03:59.309Z,96751.25
2023-03-07T00:06:27.361Z,96751.88
2023-03-07T00:08:59.924Z,96752.91
2023-03-07T00:11:28.914Z,96748.31
2023-03-07T00:13:57.318Z,96749.59
2023-03-07T00:16:25.977Z,96752.34
2023-03-07T00:18:54.793Z,96744.53
2023-03-07T00:21:22.992Z,96749.78
2023-03-07T00:23:54.238Z,96746.09
2023-03-07T00:26:24.444Z,96748.88
2023-03-07T00:28:55.046Z,96744.25
2023-03-07T00:31:24.378Z,96743.50
2023-03-07T00:33:52.071Z,96738.81
2023-03-07T00:36:23.144Z,96732.81
2023-03-07T00:38:52.025Z,96730.34
2023-03-07T00:41:25.411Z,96738.44
2023-03-07T00:43:55.127Z,96733.66
2023-03-07T00:46:25.236Z,96733.50
2023-03-07T00:48:53.353Z,96726.94
2023-03-07T00:51:22.368Z,96732.72
2023-03-07T00:53:51.092Z,96717.09
2023-03-07T00:56:25.254Z,96723.91
2023-03-07T00:58:53.250Z,96720.13
2023-03-07T01:01:25.696Z,96713.41
2023-03-07T01:03:54.236Z,96713.06
2023-03-07T01:06:27.131Z,96708.53
2023-03-07T01:08:58.063Z,96706.16
2023-03-07T01:11:26.571Z,96704.84
2023-03-07T01:13:59.433Z,96705.38
2023-03-07T01:16:34.121Z,96709.34
2023-03-07T01:19:06.724Z,96705.03
2023-03-07T01:21:40.491Z,96702.63
2023-03-07T01:24:13.762Z,96702.16
2023-03-07T01:26:41.183Z,96701.06
2023-03-07T01:29:11.861Z,96705.66
2023-03-07T01:31:39.586Z,96703.34
2023-03-07T01:34:07.952Z,96704.63
2023-03-07T01:36:37.055Z,96695.84
2023-03-07T01:39:15.917Z,96690.06
2023-03-07T01:41:45.229Z,96690.16
2023-03-07T01:44:26.013Z,96682.44
2023-03-07T01:47:00.801Z,96684.81
2023-03-07T01:49:41.040Z,96685.47
2023-03-07T01:52:43.116Z,96682.53
2023-03-07T01:55:22.680Z,96682.19
2023-03-07T01:57:52.489Z,96682.19
2023-03-07T02:00:29.871Z,96678.13
2023-03-07T02:03:17.536Z,96676.72
2023-03-07T02:06:10.672Z,96671.66
2023-03-07T02:08:40.299Z,96674.25
2023-03-07T02:11:08.553Z,96677.19
2023-03-07T02:13:35.969Z,96669.06
2023-03-07T02:16:05.908Z,96675.31
2023-03-07T02:18:42.043Z,96673.13
2023-03-07T02:21:32.922Z,96679.03
2023-03-07T02:24:32.458Z,96668.81
2023-03-07T02:26:59.982Z,96674.34
2023-03-07T02:29:27.250Z,96669.81
2023-03-07T02:31:54.752Z,96669.63
2023-03-07T02:34:27.276Z,96671.19
2023-03-07T02:37:05.014Z,96657.84
2023-03-07T02:39:33.260Z,96666.84
2023-03-07T02:42:08.272Z,96661.13
2023-03-07T02:44:35.554Z,96671.88
2023-03-07T02:47:03.285Z,96658.75
2023-03-07T02:49:30.563Z,96669.22
2023-03-07T02:52:00.745Z,96653.28
2023-03-07T02:54:28.090Z,96649.38
2023-03-07T02:56:55.648Z,96654.19
2023-03-07T02:59:22.957Z,96660.31
2023-03-07T03:01:50.658Z,96655.59
2023-03-07T03:04:18.125Z,96661.97
2023-03-07T03:06:45.691Z,96654.63
2023-03-07T03:09:13.020Z,96663.91
2023-03-07T03:11:40.550Z,96655.91
2023-03-07T03:14:07.999Z,96662.63
2023-03-07T03:16:35.542Z,96660.75
2023-03-07T03:19:03.520Z,96669.44
2023-03-07T03:21:31.635Z,96659.31
2023-03-07T03:23:58.925Z,96662.91
2023-03-07T03:26:26.499Z,96668.41
2023-03-07T03:28:55.078Z,96671.44
2023-03-07T03:31:22.685Z,96667.38
2023-03-07T03:33:52.328Z,96668.34
2023-03-07T03:36:20.433Z,96666.84
2023-03-07T03:38:47.668Z,96665.31
2023-03-07T03:41:16.155Z,96656.44
2023-03-07T03:43:43.613Z,96663.78
2023-03-07T03:46:11.444Z,96667.13
2023-03-07T03:48:38.859Z,96661.78
2023-03-07T03:51:12.370Z,96662.16
2023-03-07T03:53:40.243Z,96668.59
2023-03-07T03:56:15.939Z,96668.16
2023-03-07T03:58:44.305Z,96669.28
2023-03-07T04:01:13.018Z,96674.81
2023-03-07T04:03:44.280Z,96667.16
2023-03-07T04:06:15.592Z,96665.38
2023-03-07T04:08:42.981Z,96675.16
2023-03-07T04:11:10.753Z,96674.59
2023-03-07T04:13:38.059Z,96675.06
2023-03-07T04:16:06.404Z,96679.94
2023-03-07T04:18:35.545Z,96674.59
2023-03-07T04:21:06.102Z,96675.19
2023-03-07T04:23:34.134Z,96672.75
2023-03-07T04:26:05.215Z,96678.09
2023-03-07T04:28:45.402Z,96667.22
2023-03-07T04:31:22.710Z,96670.63
2023-03-07T04:33:51.229Z,96665.72
2023-03-07T04:36:19.057Z,96664.84
2023-03-07T04:38:48.668Z,96669.09
2023-03-07T04:41:23.144Z,96659.91
2023-03-07T04:43:50.510Z,96664.03
2023-03-07T04:46:19.637Z,96669.50
2023-03-07T04:48:47.841Z,96666.44
2023-03-07T04:51:15.927Z,96665.13
2023-03-07T04:53:44.334Z,96663.56
2023-03-07T04:56:15.313Z,96662.59
2023-03-07T04:58:44.155Z,96660.38
2023-03-07T05:01:11.814Z,96670.41
2023-03-07T05:03:39.139Z,96658.72
2023-03-07T05:06:11.174Z,96644.28
2023-03-07T05:08:38.425Z,96654.69
2023-03-07T05:11:06.329Z,96650.16
2023-03-07T05:13:33.833Z,96652.31
2023-03-07T05:16:01.728Z,96651.56
2023-03-07T05:18:29.656Z,96650.91
2023-03-07T05:20:57.321Z,96648.53
2023-03-07T05:23:24.855Z,96644.47
2023-03-07T05:25:52.382Z,96652.56
2023-03-07T05:28:19.740Z,96652.22
2023-03-07T05:30:48.139Z,96646.88
2023-03-07T05:33:15.806Z,96651.94
2023-03-07T05:35:43.509Z,96648.69
2023-03-07T05:38:11.489Z,96647.69
2023-03-07T05:40:39.426Z,96652.50
2023-03-07T05:43:06.776Z,96653.75
2023-03-07T05:45:34.339Z,96653.59
2023-03-07T05:48:02.091Z,96657.63
2023-03-07T05:50:30.719Z,96657.81
2023-03-07T05:52:57.999Z,96656.81
2023-03-07T05:55:25.802Z,96640.50
2023-03-07T05:57:53.163Z,96650.91
2023-03-07T06:00:21.658Z,96661.22
2023-03-07T06:02:48.928Z,96652.56
2023-03-07T06:05:17.078Z,96656.25
2023-03-07T06:07:44.690Z,96649.94
2023-03-07T06:10:13.371Z,96641.50
2023-03-07T06:12:40.707Z,96643.31
2023-03-07T06:15:09.066Z,96651.66
2023-03-07T06:17:37.177Z,96650.31
2023-03-07T06:20:06.168Z,96654.69
2023-03-07T06:22:34.731Z,96654.69
2023-03-07T06:25:02.335Z,96652.25
2023-03-07T06:27:37.128Z,96650.75
2023-03-07T06:30:07.640Z,96646.25
2023-03-07T06:32:35.014Z,96649.03
2023-03-07T06:35:02.614Z,96645.06
2023-03-07T06:37:29.844Z,96649.06
2023-03-07T06:39:57.604Z,96641.25
2023-03-07T06:42:24.913Z,96648.88
2023-03-07T06:44:52.642Z,96636.41
2023-03-07T06:47:19.969Z,96641.25
2023-03-07T06:49:47.457Z,96650.84
2023-03-07T06:52:14.713Z,96645.75
2023-03-07T06:54:42.226Z,96640.16
2023-03-07T06:57:09.527Z,96642.03
2023-03-07T06:59:37.032Z,96636.63
2023-03-07T07:02:05.590Z,96629.72
2023-03-07T07:04:33.835Z,96642.44
2023-03-07T07:07:01.125Z,96641.28
2023-03-07T07:09:29.220Z,96633.19
2023-03-07T07:11:56.461Z,96624.88
2023-03-07T07:14:24.227Z,96626.47
2023-03-07T07:16:51.564Z,96627.59
2023-03-07T07:19:19.144Z,96626.53
2023-03-07T07:21:46.453Z,96639.28
2023-03-07T07:24:14.106Z,96640.34
2023-03-07T07:26:41.383Z,96641.53
2023-03-07T07:29:09.006Z,96633.44
2023-03-07T07:31:36.402Z,96627.34
2023-03-07T07:34:04.527Z,96648.53
2023-03-07T07:36:32.710Z,96634.09
2023-03-07T07:39:05.460Z,96644.56
2023-03-07T07:41:34.643Z,96629.13
2023-03-07T07:44:02.420Z,96639.97
2023-03-07T07:46:29.953Z,96637.38
2023-03-07T07:48:57.542Z,96626.06
2023-03-07T07:51:24.849Z,96632.34
2023-03-07T07:53:52.560Z,96617.41
2023-03-07T07:56:19.843Z,96636.22
2023-03-07T07:58:48.116Z,96630.72
2023-03-07T08:01:22.023Z,96629.06
2023-03-07T08:03:49.852Z,96629.78
2023-03-07T08:06:27.380Z,96620.03
2023-03-07T08:08:56.017Z,96613.06
2023-03-07T08:11:24.266Z,96610.94
2023-03-07T08:13:52.041Z,96607.59
2023-03-07T08:16:22.763Z,96596.88
2023-03-07T08:18:54.419Z,96588.00
2023-03-07T08:21:22.567Z,96605.56
2023-03-07T08:23:50.383Z,96593.56
2023-03-07T08:26:18.053Z,96592.91
2023-03-07T08:28:46.206Z,96593.13
2023-03-07T08:31:21.120Z,96584.88
2023-03-07T08:33:49.754Z,96576.34
2023-03-07T08:36:17.108Z,96592.84
2023-03-07T08:38:50.917Z,96591.28
2023-03-07T08:41:20.735Z,96591.75
2023-03-07T08:43:48.575Z,96593.66
2023-03-07T08:46:16.594Z,96590.34
2023-03-07T08:48:44.277Z,96595.03
2023-03-07T08:51:16.581Z,96592.44
2023-03-07T08:53:46.307Z,96596.25
2023-03-07T08:56:18.026Z,96586.00
2023-03-07T08:58:46.602Z,96588.59
2023-03-07T09:01:14.243Z,96588.31
2023-03-07T09:03:43.636Z,96588.91
2023-03-07T09:06:20.639Z,96588.69
2023-03-07T09:08:49.620Z,96584.56
2023-03-07T09:11:19.318Z,96573.06
2023-03-07T09:13:52.358Z,96581.63
2023-03-07T09:16:21.950Z,96583.19
2023-03-07T09:18:50.594Z,96601.63
2023-03-07T09:21:18.157Z,96580.72
2023-03-07T09:23:45.789Z,96583.19
2023-03-07T09:26:13.316Z,96574.34
2023-03-07T09:28:41.480Z,96566.56
2023-03-07T09:31:11.915Z,96573.44
2023-03-07T09:33:40.142Z,96565.16
2023-03-07T09:36:11.404Z,96560.78
2023-03-07T09:38:39.896Z,96566.69
2023-03-07T09:41:41.076Z,96558.06
2023-03-07T09:44:44.883Z,96551.19
2023-03-07T09:47:39.226Z,96551.97
2023-03-07T09:50:29.596Z,96554.03
2023-03-07T09:53:04.019Z,96548.94
2023-03-07T09:55:32.667Z,96544.31
2023-03-07T09:58:16.122Z,96548.13
2023-03-07T10:00:45.791Z,96561.06
2023-03-07T10:03:46.250Z,96535.06
2023-03-07T10:06:30.676Z,96523.28
2023-03-07T10:09:01.395Z,96570.81
2023-03-07T10:12:40.023Z,96591.69
2023-03-07T10:15:45.830Z,96569.88
2023-03-07T10:18:46.578Z,96509.94
2023-03-07T10:21:38.332Z,96555.28
2023-03-07T10:24:38.842Z,96538.56
2023-03-07T10:27:10.780Z,96495.78
2023-03-07T10:29:52.016Z,96536.50
2023-03-07T10:32:35.037Z,96525.34
2023-03-07T10:35:21.592Z,96512.09
2023-03-07T10:37:57.151Z,96517.59
2023-03-07T10:40:48.925Z,96501.56
2023-03-07T10:43:36.794Z,96531.31
2023-03-07T10:46:25.098Z,96504.03
2023-03-07T10:49:16.952Z,96500.63
2023-03-07T10:51:57.599Z,96507.72
2023-03-07T10:54:32.351Z,96490.09
2023-03-07T10:57:10.284Z,96523.66
2023-03-07T10:59:43.696Z,96530.31
2023-03-07T11:02:44.858Z,96494.00
2023-03-07T11:05:36.678Z,96494.06
2023-03-07T11:08:34.103Z,96542.34
2023-03-07T11:11:04.843Z,96498.22
2023-03-07T11:13:32.626Z,96510.94
2023-03-07T11:16:20.328Z,96475.81
2023-03-07T11:18:48.146Z,96491.56
2023-03-07T11:21:36.165Z,96499.03
2023-03-07T11:24:20.377Z,96472.28
2023-03-07T11:26:54.329Z,96485.53
2023-03-07T11:29:22.255Z,96460.81
2023-03-07T11:32:12.332Z,96466.44
2023-03-07T11:35:08.150Z,96472.66
2023-03-07T11:37:49.275Z,96474.00
2023-03-07T11:40:26.796Z,96472.91
2023-03-07T11:43:13.479Z,96467.97
2023-03-07T11:46:17.814Z,96519.75
2023-03-07T11:49:27.208Z,96504.09
2023-03-07T11:52:17.731Z,96461.38
2023-03-07T11:54:57.300Z,96452.00
2023-03-07T11:57:36.912Z,96480.56
2023-03-07T12:00:47.770Z,96458.13
2023-03-07T12:03:20.906Z,96436.19
2023-03-07T12:06:29.332Z,96431.00
2023-03-07T12:09:22.158Z,96470.38
2023-03-07T12:11:55.229Z,96468.34
2023-03-07T12:14:56.221Z,96429.63
2023-03-07T12:17:48.601Z,96489.34
2023-03-07T12:20:31.071Z,96419.88
2023-03-07T12:23:16.516Z,96418.88
2023-03-07T12:25:58.514Z,96435.88
2023-03-07T12:28:44.397Z,96421.56
2023-03-07T12:31:32.438Z,96428.47
2023-03-07T12:34:33.910Z,96447.94
2023-03-07T12:37:16.651Z,96473.59
2023-03-07T12:40:02.277Z,96431.13
2023-03-07T12:42:56.090Z,96421.34
2023-03-07T12:45:50.619Z,96447.22
2023-03-07T12:48:52.099Z,96463.69
2023-03-07T12:51:43.158Z,96459.56
2023-03-07T12:54:34.147Z,96421.56
2023-03-07T12:57:19.968Z,96447.44
2023-03-07T12:59:50.847Z,96410.53
2023-03-07T13:02:29.284Z,96432.41
2023-03-07T13:04:59.016Z,96464.84
2023-03-07T13:07:33.567Z,96421.91
2023-03-07T13:10:07.160Z,96412.41
2023-03-07T13:12:38.850Z,96430.06
2023-03-07T13:15:38.621Z,96447.19
2023-03-07T13:18:30.327Z,96393.97
2023-03-07T13:21:14.183Z,96405.63
2023-03-07T13:23:41.746Z,96408.25
2023-03-07T13:26:22.531Z,96413.31
2023-03-07T13:28:51.501Z,96404.88
2023-03-07T13:31:18.981Z,96399.13
2023-03-07T13:33:48.029Z,96423.13
2023-03-07T13:36:38.768Z,96391.50
2023-03-07T13:39:38.419Z,96400.63
2023-03-07T13:42:46.439Z,96393.38
2023-03-07T13:45:42.973Z,96400.13
2023-03-07T13:48:30.866Z,96394.41
2023-03-07T13:51:01.248Z,96377.28
2023-03-07T13:53:31.392Z,96401.09
2023-03-07T13:56:17.282Z,96378.53
2023-03-07T13:59:18.360Z,96375.47
2023-03-07T14:02:12.714Z,96394.34
2023-03-07T14:04:56.000Z,96378.69
2023-03-07T14:07:28.362Z,96385.53
2023-03-07T14:10:23.782Z,96373.66
2023-03-07T14:13:13.116Z,96375.69
2023-03-07T14:16:09.970Z,96353.19
2023-03-07T14:19:07.493Z,96362.13
2023-03-07T14:21:57.126Z,96349.06
2023-03-07T14:24:41.477Z,96348.81
2023-03-07T14:27:16.500Z,96337.66
2023-03-07T14:29:57.221Z,96344.09
2023-03-07T14:32:30.914Z,96362.59
2023-03-07T14:34:59.349Z,96332.56
2023-03-07T14:37:32.787Z,96336.13
2023-03-07T14:40:00.146Z,96326.25
2023-03-07T14:43:22.829Z,96335.06
2023-03-07T14:46:14.532Z,96328.03
2023-03-07T14:49:23.998Z,96321.00
2023-03-07T14:51:51.496Z,96323.47
2023-03-07T14:54:29.778Z,96318.97
2023-03-07T14:57:00.020Z,96319.69
2023-03-07T14:59:29.379Z,96323.94
2023-03-07T15:01:57.983Z,96326.00
2023-03-07T15:04:28.820Z,96316.34
2023-03-07T15:07:01.350Z,96352.06
2023-03-07T15:09:30.654Z,96337.31
2023-03-07T15:12:20.209Z,96338.66
2023-03-07T15:15:03.291Z,96305.91
2023-03-07T15:17:43.880Z,96347.50
2023-03-07T15:20:19.366Z,96324.34
2023-03-07T15:22:47.433Z,96319.69
2023-03-07T15:25:25.244Z,96343.44
2023-03-07T15:28:02.241Z,96307.00
2023-03-07T15:30:36.937Z,96311.94
2023-03-07T15:33:35.538Z,96299.47
2023-03-07T15:36:12.369Z,96301.25
2023-03-07T15:38:45.260Z,96312.03
2023-03-07T15:41:33.896Z,96295.19
2023-03-07T15:44:21.394Z,96297.09
2023-03-07T15:46:56.442Z,96302.00
2023-03-07T15:49:47.581Z,96281.50
2023-03-07T15:52:31.802Z,96295.28
2023-03-07T15:55:02.410Z,96285.81
2023-03-07T15:57:47.980Z,96285.00
2023-03-07T16:00:30.258Z,96288.63
2023-03-07T16:03:25.798Z,96284.47
2023-03-07T16:05:55.241Z,96278.72
2023-03-07T16:08:23.878Z,96281.91
2023-03-07T16:11:05.508Z,96293.56
2023-03-07T16:13:40.988Z,96299.66
2023-03-07T16:16:23.299Z,96276.44
2023-03-07T16:18:52.083Z,96288.97
2023-03-07T16:21:20.574Z,96266.94
2023-03-07T16:23:48.545Z,96278.81
2023-03-07T16:26:23.961Z,96288.09
2023-03-07T16:28:53.806Z,96275.53
2023-03-07T16:31:22.069Z,96278.13
2023-03-07T16:33:49.850Z,96276.72
2023-03-07T16:36:18.197Z,96277.97
2023-03-07T16:38:47.295Z,96283.56
2023-03-07T16:41:21.120Z,96277.16
2023-03-07T16:43:57.953Z,96265.50
2023-03-07T16:46:26.273Z,96266.41
2023-03-07T16:48:53.982Z,96275.13
2023-03-07T16:51:25.796Z,96262.22
2023-03-07T16:53:53.696Z,96267.78
2023-03-07T16:56:30.432Z,96273.94
2023-03-07T16:59:00.510Z,96270.81
2023-03-07T17:01:28.409Z,96278.84
2023-03-07T17:03:56.714Z,96265.81
2023-03-07T17:06:37.253Z,96278.72
2023-03-07T17:09:09.487Z,96266.22
2023-03-07T17:11:40.487Z,96269.50
2023-03-07T17:14:09.699Z,96282.84
2023-03-07T17:16:45.095Z,96288.97
2023-03-07T17:19:31.103Z,96266.44
2023-03-07T17:22:01.144Z,96281.31
2023-03-07T17:24:29.690Z,96274.69
2023-03-07T17:27:07.563Z,96294.75
2023-03-07T17:29:45.462Z,96295.44
2023-03-07T17:32:13.397Z,96279.47
2023-03-07T17:34:41.152Z,96298.44
2023-03-07T17:37:10.607Z,96277.03
2023-03-07T17:39:39.008Z,96284.09
2023-03-07T17:42:06.715Z,96283.66
2023-03-07T17:44:34.552Z,96280.97
2023-03-07T17:47:01.948Z,96282.50
2023-03-07T17:49:38.663Z,96272.44
2023-03-07T17:52:08.113Z,96288.28
2023-03-07T17:54:36.222Z,96280.03
2023-03-07T17:57:03.885Z,96277.69
2023-03-07T17:59:34.305Z,96283.50
2023-03-07T18:02:02.961Z,96282.41
2023-03-07T18:04:31.933Z,96279.13
2023-03-07T18:07:02.295Z,96280.44
2023-03-07T18:09:31.207Z,96276.47
2023-03-07T18:11:58.581Z,96276.84
2023-03-07T18:14:27.968Z,96271.19
2023-03-07T18:16:56.787Z,96280.50
2023-03-07T18:19:27.224Z,96268.06
2023-03-07T18:21:56.308Z,96271.03
2023-03-07T18:24:31.661Z,96280.78
2023-03-07T18:27:00.589Z,96284.19
2023-03-07T18:29:29.712Z,96282.78
2023-03-07T18:31:57.508Z,96279.75
2023-03-07T18:34:25.669Z,96269.25
2023-03-07T18:36:54.434Z,96266.28
2023-03-07T18:39:24.128Z,96274.56
2023-03-07T18:41:53.342Z,96267.75
2023-03-07T18:44:21.541Z,96273.88
2023-03-07T18:46:49.917Z,96279.97
2023-03-07T18:49:17.958Z,96271.50
2023-03-07T18:51:46.175Z,96274.91
2023-03-07T18:54:14.267Z,96272.56
2023-03-07T18:56:44.996Z,96270.06
2023-03-07T18:59:13.767Z,96269.03
2023-03-07T19:01:42.759Z,96268.91
2023-03-07T19:04:11.765Z,96275.97
2023-03-07T19:06:42.753Z,96284.56
2023-03-07T19:09:19.777Z,96265.03
2023-03-07T19:11:48.492Z,96269.50
2023-03-07T19:14:16.429Z,96270.34
2023-03-07T19:16:44.282Z,96271.63
2023-03-07T19:19:12.073Z,96270.81
2023-03-07T19:21:39.566Z,96267.53
2023-03-07T19:24:11.555Z,96264.22
2023-03-07T19:26:40.201Z,96270.44
2023-03-07T19:29:09.849Z,96267.09
2023-03-07T19:31:37.195Z,96256.44
2023-03-07T19:34:06.453Z,96263.16
2023-03-07T19:36:37.545Z,96255.69
2023-03-07T19:39:06.284Z,96260.16
2023-03-07T19:41:33.679Z,96264.03
2023-03-07T19:44:01.821Z,96254.28
2023-03-07T19:46:29.173Z,96264.50
2023-03-07T19:48:56.938Z,96258.41
2023-03-07T19:51:27.054Z,96267.19
2023-03-07T19:53:57.504Z,96255.91
2023-03-07T19:56:31.873Z,96259.63
2023-03-07T19:59:02.167Z,96246.94
2023-03-07T20:01:30.417Z,96253.75
2023-03-07T20:03:58.788Z,96258.25
2023-03-07T20:06:32.747Z,96246.88
2023-03-07T20:09:01.514Z,96247.00
2023-03-07T20:11:34.663Z,96236.50
2023-03-07T20:14:05.786Z,96237.25
2023-03-07T20:16:34.804Z,96237.25
2023-03-07T20:19:09.213Z,96228.22
2023-03-07T20:21:38.216Z,96237.03
2023-03-07T20:24:08.223Z,96247.25
2023-03-07T20:26:38.745Z,96239.50
2023-03-07T20:29:08.636Z,96229.13
2023-03-07T20:31:39.285Z,96230.91
2023-03-07T20:34:08.157Z,96237.25
2023-03-07T20:36:38.363Z,96226.41
2023-03-07T20:39:14.652Z,96231.84
2023-03-07T20:41:44.130Z,96228.81
2023-03-07T20:44:14.884Z,96235.75
2023-03-07T20:46:42.541Z,96226.22
2023-03-07T20:49:14.151Z,96228.38
2023-03-07T20:51:43.506Z,96238.22
2023-03-07T20:54:14.773Z,96229.00
2023-03-07T20:56:43.897Z,96234.31
2023-03-07T20:59:16.048Z,96237.59
2023-03-07T21:01:50.498Z,96225.41
2023-03-07T21:04:20.602Z,96218.56
2023-03-07T21:06:49.245Z,96228.06
2023-03-07T21:09:18.478Z,96227.91
2023-03-07T21:11:49.212Z,96233.63
2023-03-07T21:14:19.560Z,96238.88
2023-03-07T21:16:46.982Z,96241.69
2023-03-07T21:19:14.880Z,96252.59
2023-03-07T21:21:42.650Z,96236.59
2023-03-07T21:24:15.911Z,96225.94
2023-03-07T21:26:43.453Z,96222.06
2023-03-07T21:29:11.183Z,96228.31
2023-03-07T21:31:38.948Z,96241.91
2023-03-07T21:34:11.302Z,96235.91
2023-03-07T21:36:38.679Z,96236.78
2023-03-07T21:39:09.951Z,96231.38
2023-03-07T21:41:38.184Z,96236.44
2023-03-07T21:44:06.251Z,96218.03
2023-03-07T21:46:33.730Z,96224.78
2023-03-07T21:49:01.692Z,96227.41
2023-03-07T21:51:29.285Z,96225.25
2023-03-07T21:53:56.896Z,96219.84
2023-03-07T21:56:24.357Z,96237.38
2023-03-07T21:59:01.183Z,96222.78
2023-03-07T22:01:29.764Z,96227.50
2023-03-07T22:03:59.693Z,96231.13
2023-03-07T22:06:28.445Z,96221.84
2023-03-07T22:08:56.396Z,96218.78
2023-03-07T22:11:23.696Z,96240.09
2023-03-07T22:13:51.414Z,96207.31
2023-03-07T22:16:21.060Z,96229.41
2023-03-07T22:18:53.730Z,96232.25
2023-03-07T22:21:21.640Z,96216.84
2023-03-07T22:23:49.288Z,96225.66
2023-03-07T22:26:16.684Z,96227.63
2023-03-07T22:28:44.198Z,96220.69
2023-03-07T22:31:13.273Z,96228.72
2023-03-07T22:33:41.834Z,96232.88
2023-03-07T22:36:13.203Z,96224.75
2023-03-07T22:38:42.865Z,96238.38
2023-03-07T22:41:17.098Z,96224.91
2023-03-07T22:43:45.268Z,96231.50
2023-03-07T22:46:13.147Z,96216.91
2023-03-07T22:48:41.097Z,96217.66
2023-03-07T22:51:20.279Z,96227.78
2023-03-07T22:53:48.404Z,96242.03
2023-03-07T22:56:27.506Z,96227.91
2023-03-07T22:58:55.388Z,96227.22
2023-03-07T23:01:27.173Z,96241.94
2023-03-07T23:03:57.370Z,96241.19
2023-03-07T23:06:30.303Z,96255.69
2023-03-07T23:08:59.868Z,96240.59
2023-03-07T23:11:31.329Z,96239.34
2023-03-07T23:14:00.079Z,96257.25
2023-03-07T23:16:30.779Z,96241.34
2023-03-07T23:18:59.936Z,96258.41
2023-03-07T23:21:30.782Z,96250.53
2023-03-07T23:23:59.975Z,96251.00
2023-03-07T23:26:36.993Z,96250.06
2023-03-07T23:29:09.873Z,96264.44
2023-03-07T23:31:40.515Z,96262.56
2023-03-07T23:34:19.091Z,96256.56
2023-03-07T23:36:46.845Z,96263.34
2023-03-07T23:39:16.677Z,96273.50
2023-03-07T23:41:44.021Z,96249.25
2023-03-07T23:44:12.232Z,96262.31
2023-03-07T23:46:39.847Z,96256.91
2023-03-07T23:49:07.424Z,96261.28
2023-03-07T23:51:34.754Z,96250.09
2023-03-07T23:54:02.341Z,96234.69
2023-03-07T23:56:29.725Z,96240.56
2023-03-07T23:58:57.233Z,96282.19
